createdAt,value
2018-08-18T00:00:40.521Z,14.93
2018-08-18T00:03:09.405Z,13.07
2018-08-18T00:05:38.219Z,13.80
2018-08-18T00:08:06.953Z,13.60
2018-08-18T00:10:35.886Z,15.37
2018-08-18T00:13:04.613Z,12.80
2018-08-18T00:15:33.529Z,15.20
2018-08-18T00:20:53.374Z,12.80
2018-08-18T00:23:22.133Z,15.93
2018-08-18T00:25:50.853Z,13.13
2018-08-18T00:28:23.701Z,12.10
2018-08-18T00:30:52.965Z,15.10
2018-08-18T00:33:28.500Z,13.03
2018-08-18T00:35:57.301Z,11.23
2018-08-18T00:38:26.182Z,13.13
2018-08-18T00:41:00.125Z,13.60
2018-08-18T00:43:28.939Z,12.73
2018-08-18T00:45:57.913Z,12.53
2018-08-18T00:48:26.757Z,10.83
2018-08-18T00:50:55.487Z,10.63
2018-08-18T00:53:24.206Z,10.10
2018-08-18T00:55:55.013Z,12.30
2018-08-18T00:58:31.209Z,11.00
2018-08-18T01:01:04.933Z,11.23
2018-08-18T01:03:42.263Z,9.10
2018-08-18T01:06:19.013Z,15.17
2018-08-18T01:08:48.759Z,10.57
2018-08-18T01:11:17.579Z,13.03
2018-08-18T01:13:46.428Z,10.80
2018-08-18T01:16:15.081Z,9.97
2018-08-18T01:18:43.790Z,10.80
2018-08-18T01:21:12.532Z,12.23
2018-08-18T01:23:41.274Z,9.83
2018-08-18T01:26:10.269Z,11.70
2018-08-18T01:28:39.029Z,10.57
2018-08-18T01:31:15.246Z,9.93
2018-08-18T01:33:44.067Z,13.20
2018-08-18T01:36:12.737Z,11.90
2018-08-18T01:38:41.559Z,8.63
2018-08-18T01:41:16.505Z,9.77
2018-08-18T01:43:46.165Z,10.37
2018-08-18T01:46:17.403Z,10.57
2018-08-18T01:48:48.179Z,10.37
2018-08-18T01:51:19.516Z,8.87
2018-08-18T01:53:48.853Z,9.43
2018-08-18T01:56:18.878Z,11.80
2018-08-18T01:58:47.677Z,9.13
2018-08-18T02:01:16.430Z,10.83
2018-08-18T02:03:45.189Z,10.10
2018-08-18T02:06:15.061Z,10.57
2018-08-18T02:08:56.244Z,8.87
2018-08-18T02:11:26.253Z,9.23
2018-08-18T02:13:56.860Z,9.87
2018-08-18T02:16:27.975Z,8.80
2018-08-18T02:18:56.676Z,8.37
2018-08-18T02:21:29.011Z,8.53
2018-08-18T02:23:59.065Z,10.73
2018-08-18T02:26:39.714Z,7.87
2018-08-18T02:29:08.490Z,9.90
2018-08-18T02:31:37.309Z,7.60
2018-08-18T02:34:06.018Z,7.80
2018-08-18T02:36:34.962Z,7.10
2018-08-18T02:39:04.417Z,9.03
2018-08-18T02:41:33.385Z,7.57
2018-08-18T02:44:02.177Z,6.70
2018-08-18T02:46:35.141Z,5.80
2018-08-18T02:49:04.594Z,6.10
2018-08-18T02:51:33.786Z,7.47
2018-08-18T02:54:03.014Z,6.90
2018-08-18T02:56:37.267Z,5.30
2018-08-18T02:59:21.779Z,5.73
2018-08-18T03:01:50.546Z,5.93
2018-08-18T03:04:19.305Z,6.20
2018-08-18T03:06:48.078Z,6.17
2018-08-18T03:09:16.894Z,5.97
2018-08-18T03:11:45.685Z,5.53
2018-08-18T03:14:14.352Z,6.13
2018-08-18T03:17:05.322Z,5.10
2018-08-18T03:19:34.079Z,5.60
2018-08-18T03:22:03.225Z,4.77
2018-08-18T03:24:32.043Z,4.90
2018-08-18T03:27:00.833Z,5.90
2018-08-18T03:29:30.401Z,7.57
2018-08-18T03:31:59.167Z,6.17
2018-08-18T03:34:27.903Z,7.30
2018-08-18T03:36:56.700Z,5.83
2018-08-18T03:39:41.013Z,5.80
2018-08-18T03:42:09.838Z,7.07
2018-08-18T03:44:43.957Z,7.40
2018-08-18T03:47:12.817Z,6.20
2018-08-18T03:49:41.545Z,4.90
2018-08-18T03:52:10.311Z,4.70
2018-08-18T03:54:39.153Z,4.53
2018-08-18T03:57:07.993Z,4.53
2018-08-18T03:59:36.783Z,5.17
2018-08-18T04:02:05.910Z,5.67
2018-08-18T04:04:35.822Z,5.50
2018-08-18T04:07:06.181Z,5.07
2018-08-18T04:09:36.849Z,4.90
2018-08-18T04:12:07.929Z,5.07
2018-08-18T04:14:43.079Z,4.70
2018-08-18T04:17:24.382Z,5.70
2018-08-18T04:19:53.174Z,4.13
2018-08-18T04:22:22.753Z,5.27
2018-08-18T04:24:51.478Z,4.00
2018-08-18T04:27:35.185Z,4.03
2018-08-18T04:30:05.094Z,4.40
2018-08-18T04:32:45.490Z,4.87
2018-08-18T04:35:14.244Z,5.03
2018-08-18T04:37:52.906Z,4.10
2018-08-18T04:40:22.313Z,4.70
2018-08-18T04:42:51.231Z,4.10
2018-08-18T04:45:21.133Z,4.60
2018-08-18T04:47:49.854Z,5.23
2018-08-18T04:50:18.742Z,6.33
2018-08-18T04:52:47.457Z,4.70
2018-08-18T04:55:17.990Z,4.70
2018-08-18T04:57:46.694Z,4.87
2018-08-18T05:00:15.963Z,4.77
2018-08-18T05:02:50.162Z,4.27
2018-08-18T05:05:20.628Z,3.17
2018-08-18T05:07:50.389Z,3.53
2018-08-18T05:10:20.389Z,3.60
2018-08-18T05:12:49.205Z,3.03
2018-08-18T05:15:19.621Z,4.20
2018-08-18T05:17:49.665Z,3.63
2018-08-18T05:20:19.845Z,4.67
2018-08-18T05:22:48.639Z,3.60
2018-08-18T05:25:18.574Z,5.07
2018-08-18T05:27:47.385Z,5.30
2018-08-18T05:30:16.156Z,4.30
2018-08-18T05:32:44.902Z,5.23
2018-08-18T05:35:13.668Z,4.90
2018-08-18T05:37:42.433Z,3.63
2018-08-18T05:43:03.080Z,3.43
2018-08-18T05:45:32.857Z,4.30
2018-08-18T05:48:01.569Z,3.73
2018-08-18T05:50:34.294Z,3.67
2018-08-18T05:55:54.508Z,5.40
2018-08-18T05:58:25.353Z,6.87
2018-08-18T06:00:58.038Z,7.53
2018-08-18T06:03:44.966Z,5.27
2018-08-18T06:06:13.810Z,5.87
2018-08-18T06:08:42.498Z,7.80
2018-08-18T06:11:11.208Z,5.63
2018-08-18T06:13:52.642Z,7.50
2018-08-18T06:16:21.365Z,4.10
2018-08-18T06:18:50.163Z,5.30
2018-08-18T06:21:18.886Z,6.43
2018-08-18T06:23:47.782Z,6.73
2018-08-18T06:26:18.743Z,7.03
2018-08-18T06:28:47.618Z,11.53
2018-08-18T06:31:35.210Z,6.70
2018-08-18T06:34:04.003Z,6.23
2018-08-18T06:36:32.686Z,7.70
2018-08-18T06:39:01.469Z,4.33
2018-08-18T06:41:30.290Z,4.77
2018-08-18T06:44:06.741Z,6.63
2018-08-18T06:46:35.499Z,5.83
2018-08-18T06:49:04.318Z,7.23
2018-08-18T06:51:36.325Z,3.97
2018-08-18T06:54:05.137Z,6.03
2018-08-18T06:56:33.972Z,3.63
2018-08-18T06:59:10.117Z,4.10
2018-08-18T07:01:38.942Z,3.23
2018-08-18T07:04:09.698Z,6.77
2018-08-18T07:06:38.541Z,5.20
2018-08-18T07:09:11.474Z,4.93
2018-08-18T07:11:40.291Z,5.97
2018-08-18T07:14:09.027Z,4.23
2018-08-18T07:16:37.728Z,5.07
2018-08-18T07:19:13.163Z,5.90
2018-08-18T07:21:58.641Z,4.80
2018-08-18T07:24:36.206Z,5.10
2018-08-18T07:27:05.329Z,6.97
2018-08-18T07:29:46.578Z,5.93
2018-08-18T07:32:15.501Z,3.80
2018-08-18T07:34:44.262Z,5.57
2018-08-18T07:37:13.143Z,6.87
2018-08-18T07:39:51.014Z,3.73
2018-08-18T07:42:20.938Z,6.23
2018-08-18T07:44:49.641Z,7.10
2018-08-18T07:47:22.595Z,6.20
2018-08-18T07:49:51.340Z,5.27
2018-08-18T07:52:27.098Z,6.10
2018-08-18T07:54:55.873Z,6.80
2018-08-18T07:57:24.620Z,7.10
2018-08-18T07:59:55.549Z,5.00
2018-08-18T08:02:24.757Z,6.83
2018-08-18T08:04:53.500Z,4.97
2018-08-18T08:07:23.292Z,4.07
2018-08-18T08:09:52.038Z,4.93
2018-08-18T08:12:20.856Z,5.27
2018-08-18T08:14:49.657Z,3.67
2018-08-18T08:17:18.541Z,5.27
2018-08-18T08:19:47.329Z,4.70
2018-08-18T08:22:16.160Z,4.93
2018-08-18T08:24:45.006Z,5.70
2018-08-18T08:27:14.206Z,4.27
2018-08-18T08:29:42.976Z,4.67
2018-08-18T08:32:11.829Z,3.93
2018-08-18T08:34:48.178Z,6.50
2018-08-18T08:37:17.258Z,5.17
2018-08-18T08:39:46.715Z,5.77
2018-08-18T08:42:23.203Z,5.57
2018-08-18T08:44:52.926Z,5.00
2018-08-18T08:47:21.689Z,3.70
2018-08-18T08:49:51.018Z,7.03
2018-08-18T08:52:20.005Z,6.87
2018-08-18T08:54:48.864Z,4.67
2018-08-18T08:57:17.612Z,7.50
2018-08-18T08:59:46.566Z,6.13
2018-08-18T09:02:15.377Z,5.63
2018-08-18T09:04:44.109Z,8.37
2018-08-18T09:07:12.942Z,6.20
2018-08-18T09:09:41.651Z,5.73
2018-08-18T09:12:10.606Z,4.27
2018-08-18T09:14:39.310Z,4.63
2018-08-18T09:17:08.182Z,4.07
2018-08-18T09:19:36.954Z,4.83
2018-08-18T09:22:05.699Z,6.67
2018-08-18T09:24:34.586Z,6.20
2018-08-18T09:27:05.009Z,4.33
2018-08-18T09:29:39.209Z,5.63
2018-08-18T09:32:07.961Z,5.07
2018-08-18T09:34:42.304Z,5.23
2018-08-18T09:37:10.992Z,6.20
2018-08-18T09:39:39.709Z,6.77
2018-08-18T09:42:11.199Z,5.77
2018-08-18T09:44:40.854Z,3.63
2018-08-18T09:47:09.705Z,4.30
2018-08-18T09:49:38.424Z,6.50
2018-08-18T09:52:08.588Z,6.80
2018-08-18T09:54:37.294Z,8.23
2018-08-18T09:57:06.338Z,7.77
2018-08-18T09:59:35.333Z,6.83
2018-08-18T10:02:04.330Z,5.57
2018-08-18T10:04:33.190Z,5.10
2018-08-18T10:07:01.917Z,6.77
2018-08-18T10:09:30.835Z,8.50
2018-08-18T10:12:04.733Z,7.10
2018-08-18T10:14:33.460Z,5.77
2018-08-18T10:17:02.077Z,5.77
2018-08-18T10:19:31.544Z,5.10
2018-08-18T10:22:01.013Z,7.27
2018-08-18T10:24:29.851Z,6.83
2018-08-18T10:27:18.954Z,7.97
2018-08-18T10:29:47.580Z,8.50
2018-08-18T10:32:16.489Z,6.00
2018-08-18T10:34:45.325Z,6.17
2018-08-18T10:37:14.465Z,5.20
2018-08-18T10:39:50.601Z,6.47
2018-08-18T10:42:24.765Z,6.23
2018-08-18T10:45:01.181Z,5.10
2018-08-18T10:47:29.966Z,3.73
2018-08-18T10:50:12.394Z,6.33
2018-08-18T10:52:52.710Z,3.90
2018-08-18T10:55:21.488Z,3.57
2018-08-18T10:57:56.644Z,4.80
2018-08-18T11:00:26.926Z,5.30
2018-08-18T11:02:57.720Z,4.50
2018-08-18T11:05:27.197Z,3.63
2018-08-18T11:08:01.735Z,7.10
2018-08-18T11:10:39.875Z,5.03
2018-08-18T11:13:08.797Z,4.13
2018-08-18T11:15:37.749Z,7.90
2018-08-18T11:18:06.625Z,4.70
2018-08-18T11:20:44.284Z,5.63
2018-08-18T11:23:14.634Z,3.53
2018-08-18T11:25:51.739Z,4.43
2018-08-18T11:28:21.382Z,7.40
2018-08-18T11:30:51.461Z,4.97
2018-08-18T11:33:34.399Z,3.00
2018-08-18T11:36:04.000Z,6.23
2018-08-18T11:38:33.284Z,4.00
2018-08-18T11:41:02.052Z,5.03
2018-08-18T11:43:35.505Z,4.53
2018-08-18T11:46:04.276Z,4.63
2018-08-18T11:48:35.013Z,3.33
2018-08-18T11:51:03.873Z,3.17
2018-08-18T11:53:32.739Z,3.47
2018-08-18T11:56:01.630Z,4.57
2018-08-18T11:58:30.354Z,3.47
2018-08-18T12:01:18.897Z,3.83
2018-08-18T12:03:47.800Z,3.63
2018-08-18T12:06:18.872Z,5.67
2018-08-18T12:08:53.782Z,3.73
2018-08-18T12:11:22.481Z,4.10
2018-08-18T12:13:53.478Z,6.53
2018-08-18T12:16:22.249Z,4.10
2018-08-18T12:18:51.017Z,5.57
2018-08-18T12:21:20.975Z,3.33
2018-08-18T12:23:49.806Z,4.87
2018-08-18T12:26:20.706Z,3.13
2018-08-18T12:28:54.065Z,2.23
2018-08-18T12:31:35.284Z,4.27
2018-08-18T12:34:04.317Z,3.93
2018-08-18T12:36:33.256Z,2.33
2018-08-18T12:39:01.954Z,3.90
2018-08-18T12:41:31.724Z,4.23
2018-08-18T12:44:00.669Z,4.30
2018-08-18T12:46:40.997Z,3.07
2018-08-18T12:49:09.753Z,4.57
2018-08-18T12:51:40.766Z,3.93
2018-08-18T12:54:09.469Z,5.87
2018-08-18T12:56:38.279Z,6.67
2018-08-18T12:59:07.231Z,4.33
2018-08-18T13:01:46.282Z,3.10
2018-08-18T13:04:16.514Z,2.83
2018-08-18T13:06:46.405Z,3.03
2018-08-18T13:09:19.297Z,5.57
2018-08-18T13:11:58.305Z,4.97
2018-08-18T13:14:28.994Z,3.83
2018-08-18T13:16:57.835Z,3.67
2018-08-18T13:19:35.933Z,3.07
2018-08-18T13:22:05.749Z,3.53
2018-08-18T13:24:34.723Z,2.40
2018-08-18T13:27:03.618Z,7.70
2018-08-18T13:29:35.582Z,4.30
2018-08-18T13:32:13.081Z,2.27
2018-08-18T13:34:41.956Z,3.97
2018-08-18T13:37:10.733Z,5.27
2018-08-18T13:39:46.223Z,3.73
2018-08-18T13:42:22.169Z,4.13
2018-08-18T13:44:52.185Z,2.87
2018-08-18T13:47:21.205Z,3.63
2018-08-18T13:49:55.909Z,3.70
2018-08-18T13:52:24.934Z,2.03
2018-08-18T13:54:54.358Z,4.20
2018-08-18T13:57:32.742Z,2.13
2018-08-18T14:00:01.783Z,2.80
2018-08-18T14:02:30.767Z,3.73
2018-08-18T14:05:00.794Z,4.13
2018-08-18T14:07:30.393Z,1.97
2018-08-18T14:10:01.461Z,4.13
2018-08-18T14:12:30.362Z,4.67
2018-08-18T14:14:59.177Z,3.83
2018-08-18T14:17:27.984Z,16.23
2018-08-18T14:20:01.718Z,2.53
2018-08-18T14:22:30.484Z,5.87
2018-08-18T14:24:59.194Z,3.93
2018-08-18T14:27:32.194Z,3.47
2018-08-18T14:30:01.021Z,3.77
2018-08-18T14:32:33.930Z,3.73
2018-08-18T14:35:05.278Z,3.83
2018-08-18T14:37:38.497Z,4.43
2018-08-18T14:40:11.161Z,3.87
2018-08-18T14:42:39.880Z,2.30
2018-08-18T14:45:10.834Z,2.43
2018-08-18T14:47:39.576Z,4.20
2018-08-18T14:50:26.910Z,2.90
2018-08-18T14:52:55.703Z,2.70
2018-08-18T14:55:24.490Z,4.60
2018-08-18T14:57:58.657Z,2.87
2018-08-18T15:00:39.858Z,4.60
2018-08-18T15:03:08.857Z,3.73
2018-08-18T15:05:43.381Z,10.40
2018-08-18T15:08:12.093Z,3.93
2018-08-18T15:10:47.617Z,2.67
2018-08-18T15:13:16.741Z,4.10
2018-08-18T15:15:45.648Z,2.37
2018-08-18T15:18:18.744Z,3.17
2018-08-18T15:20:47.758Z,2.60
2018-08-18T15:23:17.501Z,2.70
2018-08-18T15:25:48.583Z,2.80
2018-08-18T15:28:18.586Z,2.53
2018-08-18T15:30:49.622Z,3.30
2018-08-18T15:33:20.298Z,2.63
2018-08-18T15:35:49.205Z,2.73
2018-08-18T15:38:34.627Z,3.62
2018-08-18T15:41:03.385Z,4.08
2018-08-18T15:43:32.282Z,2.75
2018-08-18T15:46:07.830Z,3.33
2018-08-18T15:48:39.568Z,3.87
2018-08-18T15:51:08.382Z,2.33
2018-08-18T15:53:52.661Z,3.92
2018-08-18T15:56:29.130Z,1.90
2018-08-18T15:58:58.537Z,2.08
2018-08-18T16:01:28.510Z,2.40
2018-08-18T16:04:02.629Z,3.87
2018-08-18T16:06:32.206Z,4.77
2018-08-18T16:09:00.975Z,5.03
2018-08-18T16:11:29.766Z,4.43
2018-08-18T16:13:58.734Z,5.47
2018-08-18T16:16:29.788Z,6.57
2018-08-18T16:19:04.000Z,3.53
2018-08-18T16:21:33.885Z,2.50
2018-08-18T16:24:02.762Z,3.17
2018-08-18T16:26:31.476Z,3.93
2018-08-18T16:29:00.390Z,2.17
2018-08-18T16:31:29.083Z,3.63
2018-08-18T16:34:02.019Z,3.00
2018-08-18T16:36:34.950Z,2.17
2018-08-18T16:39:03.827Z,3.13
2018-08-18T16:41:32.638Z,3.67
2018-08-18T16:44:01.529Z,4.37
2018-08-18T16:46:31.413Z,1.80
2018-08-18T16:49:00.261Z,2.33
2018-08-18T16:51:30.181Z,3.60
2018-08-18T16:54:15.918Z,4.17
2018-08-18T16:56:44.873Z,2.20
2018-08-18T16:59:23.432Z,4.07
2018-08-18T17:01:52.265Z,2.17
2018-08-18T17:04:28.417Z,6.37
2018-08-18T17:06:57.226Z,3.43
2018-08-18T17:09:42.216Z,4.13
2018-08-18T17:12:18.803Z,2.00
2018-08-18T17:14:51.801Z,1.80
2018-08-18T17:17:23.054Z,2.53
2018-08-18T17:19:51.918Z,3.13
2018-08-18T17:22:20.796Z,1.93
2018-08-18T17:24:49.642Z,2.23
2018-08-18T17:27:18.377Z,3.20
2018-08-18T17:29:49.027Z,2.40
2018-08-18T17:32:17.750Z,1.70
2018-08-18T17:34:46.525Z,2.17
2018-08-18T17:37:30.909Z,2.00
2018-08-18T17:39:59.735Z,2.75
2018-08-18T17:42:28.595Z,2.67
2018-08-18T17:45:06.400Z,2.07
2018-08-18T17:47:39.364Z,1.87
2018-08-18T17:50:08.202Z,1.83
2018-08-18T17:52:37.006Z,3.00
2018-08-18T17:55:10.297Z,2.57
2018-08-18T17:57:39.697Z,1.93
2018-08-18T18:00:13.875Z,4.57
2018-08-18T18:02:48.017Z,3.43
2018-08-18T18:05:23.078Z,6.23
2018-08-18T18:08:09.472Z,2.60
2018-08-18T18:10:38.841Z,4.53
2018-08-18T18:13:15.061Z,3.67
2018-08-18T18:15:44.932Z,2.80
2018-08-18T18:18:15.566Z,2.03
2018-08-18T18:20:47.588Z,1.73
2018-08-18T18:23:16.965Z,1.53
2018-08-18T18:25:55.669Z,2.03
2018-08-18T18:28:24.532Z,1.90
2018-08-18T18:30:55.465Z,1.67
2018-08-18T18:33:24.404Z,3.10
2018-08-18T18:36:07.520Z,2.80
2018-08-18T18:38:52.579Z,1.57
2018-08-18T18:41:21.319Z,1.57
2018-08-18T18:43:58.067Z,4.53
2018-08-18T18:46:26.872Z,1.93
2018-08-18T18:48:56.039Z,4.20
2018-08-18T18:51:29.824Z,2.63
2018-08-18T18:53:58.748Z,2.17
2018-08-18T18:56:27.563Z,1.77
2018-08-18T18:58:56.397Z,3.47
2018-08-18T19:01:25.405Z,4.10
2018-08-18T19:03:54.297Z,2.37
2018-08-18T19:06:23.136Z,2.57
2018-08-18T19:09:00.497Z,1.77
2018-08-18T19:11:29.309Z,3.10
2018-08-18T19:13:59.046Z,2.93
2018-08-18T19:16:28.017Z,2.20
2018-08-18T19:18:56.849Z,2.20
2018-08-18T19:21:30.229Z,1.50
2018-08-18T19:24:03.597Z,2.17
2018-08-18T19:26:47.115Z,2.53
2018-08-18T19:29:17.471Z,1.63
2018-08-18T19:31:53.962Z,2.43
2018-08-18T19:37:19.357Z,4.70
2018-08-18T19:39:49.536Z,2.47
2018-08-18T19:42:19.747Z,2.53
2018-08-18T19:44:50.939Z,2.40
2018-08-18T19:47:26.029Z,2.57
2018-08-18T19:49:55.986Z,2.30
2018-08-18T19:52:26.632Z,3.00
2018-08-18T19:54:55.729Z,1.90
2018-08-18T19:57:30.049Z,2.10
2018-08-18T20:00:34.896Z,2.60
2018-08-18T20:05:54.913Z,3.20
2018-08-18T20:08:25.007Z,3.17
2018-08-18T20:11:01.249Z,2.30
2018-08-18T20:13:31.270Z,2.10
2018-08-18T20:16:01.497Z,1.77
2018-08-18T20:18:31.504Z,1.90
2018-08-18T20:21:00.579Z,1.60
2018-08-18T20:23:29.313Z,3.27
2018-08-18T20:25:58.161Z,2.17
2018-08-18T20:28:27.021Z,2.50
2018-08-18T20:30:55.805Z,2.50
2018-08-18T20:33:24.601Z,1.63
2018-08-18T20:38:49.691Z,3.33
2018-08-18T20:41:18.502Z,1.50
2018-08-18T20:43:48.054Z,2.63
2018-08-18T20:46:16.940Z,1.97
2018-08-18T20:48:45.890Z,2.73
2018-08-18T20:51:20.991Z,4.73
2018-08-18T20:53:49.868Z,3.00
2018-08-18T20:56:18.483Z,1.60
2018-08-18T20:58:47.343Z,1.80
2018-08-18T21:01:17.267Z,2.07
2018-08-18T21:03:48.416Z,2.03
2018-08-18T21:06:18.207Z,4.60
2018-08-18T21:08:47.185Z,2.20
2018-08-18T21:11:16.549Z,1.90
2018-08-18T21:13:49.746Z,3.60
2018-08-18T21:16:19.378Z,1.90
2018-08-18T21:18:48.231Z,2.63
2018-08-18T21:21:33.342Z,2.43
2018-08-18T21:24:02.117Z,2.33
2018-08-18T21:26:31.174Z,1.70
2018-08-18T21:29:00.123Z,1.80
2018-08-18T21:31:32.949Z,1.87
2018-08-18T21:34:02.948Z,2.77
2018-08-18T21:36:32.340Z,2.70
2018-08-18T21:39:03.609Z,1.93
2018-08-18T21:41:36.707Z,2.00
2018-08-18T21:44:18.510Z,2.50
2018-08-18T21:46:47.506Z,2.43
2018-08-18T21:49:28.068Z,1.77
2018-08-18T21:52:30.671Z,3.93
2018-08-18T21:55:23.839Z,1.93
2018-08-18T21:57:58.177Z,3.80
2018-08-18T22:00:32.170Z,3.63
2018-08-18T22:03:00.946Z,2.73
2018-08-18T22:05:31.849Z,2.50
2018-08-18T22:13:59.330Z,3.23
2018-08-18T22:16:40.075Z,2.07
2018-08-18T22:22:27.685Z,1.97
2018-08-18T22:24:57.135Z,1.73
2018-08-18T22:27:25.883Z,2.00
2018-08-18T22:29:54.825Z,1.87
2018-08-18T22:32:24.980Z,2.27
2018-08-18T22:34:53.813Z,2.03
2018-08-18T22:37:24.965Z,1.87
2018-08-18T22:39:59.875Z,3.13
2018-08-18T22:42:28.953Z,2.60
2018-08-18T22:45:02.513Z,2.10
2018-08-18T22:47:31.447Z,2.57
2018-08-18T22:50:00.297Z,2.30
2018-08-18T22:52:29.114Z,2.30
2018-08-18T22:54:57.934Z,2.83
2018-08-18T22:57:26.781Z,2.70
2018-08-18T23:00:03.522Z,2.17
2018-08-18T23:02:33.656Z,1.80
2018-08-18T23:05:02.646Z,4.27
2018-08-18T23:07:31.469Z,2.50
2018-08-18T23:10:11.142Z,2.20
2018-08-18T23:15:38.248Z,2.40
2018-08-18T23:18:23.519Z,3.63
2018-08-18T23:21:31.012Z,4.60
2018-08-18T23:24:21.626Z,2.00
2018-08-18T23:29:42.038Z,3.33
2018-08-18T23:32:25.822Z,3.27
2018-08-18T23:35:02.845Z,2.50
2018-08-18T23:37:34.726Z,4.17
2018-08-18T23:40:03.398Z,2.80
2018-08-18T23:42:53.919Z,2.47
2018-08-18T23:45:23.199Z,2.60
2018-08-18T23:50:44.780Z,3.93
2018-08-18T23:53:16.364Z,2.97
2018-08-18T23:56:00.380Z,4.20
2018-08-18T23:58:30.285Z,3.20
